sensor_id;sensor_type;location;lat;lon;timestamp;P1;durP1;ratioP1;P2;durP2;ratioP2
1220;SDS011;600;48.044;7.878;2022-11-23T06:48:55;4.00;;;1.67;;
1220;SDS011;600;48.044;7.878;2022-11-23T06:51:21;5.53;;;1.93;;
1220;SDS011;600;48.044;7.878;2022-11-23T06:53:48;1.98;;;1.33;;
1220;SDS011;600;48.044;7.878;2022-11-23T06:56:15;1.42;;;1.05;;
1220;SDS011;600;48.044;7.878;2022-11-23T06:58:42;3.70;;;1.87;;
1220;SDS011;600;48.044;7.878;2022-11-23T07:01:09;3.30;;;1.48;;
1220;SDS011;600;48.044;7.878;2022-11-23T07:03:36;2.33;;;1.45;;
1220;SDS011;600;48.044;7.878;2022-11-23T07:06:05;3.73;;;1.50;;
1220;SDS011;600;48.044;7.878;2022-11-23T07:08:32;4.20;;;1.50;;
1220;SDS011;600;48.044;7.878;2022-11-23T07:10:59;5.67;;;1.43;;
1220;SDS011;600;48.044;7.878;2022-11-23T07:13:26;1.47;;;0.93;;
1220;SDS011;600;48.044;7.878;2022-11-23T07:15:53;3.90;;;1.67;;
1220;SDS011;600;48.044;7.878;2022-11-23T07:18:20;2.28;;;1.58;;
1220;SDS011;600;48.044;7.878;2022-11-23T07:20:47;2.43;;;1.63;;
1220;SDS011;600;48.044;7.878;2022-11-23T07:23:15;3.13;;;1.73;;
1220;SDS011;600;48.044;7.878;2022-11-23T07:25:42;4.25;;;1.58;;
1220;SDS011;600;48.044;7.878;2022-11-23T07:28:09;2.47;;;1.90;;
1220;SDS011;600;48.044;7.878;2022-11-23T07:30:37;1.70;;;1.13;;
1220;SDS011;600;48.044;7.878;2022-11-23T07:33:05;4.57;;;1.90;;
1220;SDS011;600;48.044;7.878;2022-11-23T07:35:33;1.90;;;1.37;;
1220;SDS011;600;48.044;7.878;2022-11-23T07:38:01;3.50;;;1.80;;
1220;SDS011;600;48.044;7.878;2022-11-23T07:40:29;3.27;;;1.40;;
1220;SDS011;600;48.044;7.878;2022-11-23T07:42:59;2.17;;;1.30;;
1220;SDS011;600;48.044;7.878;2022-11-23T07:45:27;2.30;;;1.80;;
1220;SDS011;600;48.044;7.878;2022-11-23T07:47:57;2.30;;;1.80;;
1220;SDS011;600;48.044;7.878;2022-11-23T07:50:25;3.55;;;1.50;;
1220;SDS011;600;48.044;7.878;2022-11-23T07:52:52;2.40;;;1.20;;
1220;SDS011;600;48.044;7.878;2022-11-23T07:55:19;2.97;;;1.20;;
1220;SDS011;600;48.044;7.878;2022-11-23T07:57:49;5.47;;;1.30;;
1220;SDS011;600;48.044;7.878;2022-11-23T08:00:17;4.43;;;1.53;;
1220;SDS011;600;48.044;7.878;2022-11-23T08:02:45;1.53;;;1.00;;
1220;SDS011;600;48.044;7.878;2022-11-23T08:05:12;2.83;;;1.40;;
1220;SDS011;600;48.044;7.878;2022-11-23T08:07:38;3.43;;;1.57;;
1220;SDS011;600;48.044;7.878;2022-11-23T08:10:05;2.57;;;1.20;;
1220;SDS011;600;48.044;7.878;2022-11-23T08:12:33;2.23;;;1.10;;
1220;SDS011;600;48.044;7.878;2022-11-23T08:15:02;2.00;;;1.07;;
1220;SDS011;600;48.044;7.878;2022-11-23T08:17:29;2.17;;;1.50;;
1220;SDS011;600;48.044;7.878;2022-11-23T08:19:55;3.20;;;1.63;;
1220;SDS011;600;48.044;7.878;2022-11-23T08:22:22;2.57;;;1.40;;
1220;SDS011;600;48.044;7.878;2022-11-23T08:24:50;2.80;;;1.40;;
1220;SDS011;600;48.044;7.878;2022-11-23T08:27:17;1.43;;;1.33;;
1220;SDS011;600;48.044;7.878;2022-11-23T08:29:44;1.10;;;1.00;;
1220;SDS011;600;48.044;7.878;2022-11-23T08:32:12;2.50;;;1.40;;
1220;SDS011;600;48.044;7.878;2022-11-23T08:34:40;1.23;;;1.13;;
1220;SDS011;600;48.044;7.878;2022-11-23T08:37:07;3.30;;;1.50;;
1220;SDS011;600;48.044;7.878;2022-11-23T08:39:34;2.43;;;1.17;;
1220;SDS011;600;48.044;7.878;2022-11-23T08:42:01;2.03;;;1.30;;
1220;SDS011;600;48.044;7.878;2022-11-23T08:44:28;2.30;;;1.30;;
1220;SDS011;600;48.044;7.878;2022-11-23T08:46:55;2.30;;;1.50;;
1220;SDS011;600;48.044;7.878;2022-11-23T08:49:23;2.37;;;1.27;;
1220;SDS011;600;48.044;7.878;2022-11-23T08:51:50;1.73;;;1.13;;
1220;SDS011;600;48.044;7.878;2022-11-23T08:54:16;2.43;;;1.53;;
1220;SDS011;600;48.044;7.878;2022-11-23T08:56:43;3.63;;;1.40;;
1220;SDS011;600;48.044;7.878;2022-11-23T08:59:10;2.00;;;1.60;;
1220;SDS011;600;48.044;7.878;2022-11-23T09:01:37;2.63;;;1.33;;
1220;SDS011;600;48.044;7.878;2022-11-23T09:04:03;2.10;;;1.33;;
1220;SDS011;600;48.044;7.878;2022-11-23T09:06:32;2.27;;;1.10;;
1220;SDS011;600;48.044;7.878;2022-11-23T09:08:59;4.90;;;1.20;;
1220;SDS011;600;48.044;7.878;2022-11-23T09:11:26;2.40;;;1.20;;
1220;SDS011;600;48.044;7.878;2022-11-23T09:13:53;1.90;;;1.27;;
1220;SDS011;600;48.044;7.878;2022-11-23T09:16:20;2.80;;;1.73;;
1220;SDS011;600;48.044;7.878;2022-11-23T09:18:46;2.10;;;1.10;;
1220;SDS011;600;48.044;7.878;2022-11-23T09:21:14;4.53;;;1.57;;
1220;SDS011;600;48.044;7.878;2022-11-23T09:23:42;14.00;;;1.70;;
1220;SDS011;600;48.044;7.878;2022-11-23T09:26:09;2.67;;;1.00;;
1220;SDS011;600;48.044;7.878;2022-11-23T09:28:36;1.80;;;1.13;;
1220;SDS011;600;48.044;7.878;2022-11-23T09:31:03;2.17;;;1.00;;
1220;SDS011;600;48.044;7.878;2022-11-23T09:33:30;2.10;;;1.20;;
1220;SDS011;600;48.044;7.878;2022-11-23T09:35:57;1.20;;;0.87;;
1220;SDS011;600;48.044;7.878;2022-11-23T09:38:24;2.60;;;1.20;;
1220;SDS011;600;48.044;7.878;2022-11-23T09:40:55;1.73;;;1.30;;
1220;SDS011;600;48.044;7.878;2022-11-23T09:43:41;1.03;;;0.90;;
1220;SDS011;600;48.044;7.878;2022-11-23T09:46:18;5.90;;;1.40;;
1220;SDS011;600;48.044;7.878;2022-11-23T09:48:54;9.50;;;2.13;;
1220;SDS011;600;48.044;7.878;2022-11-23T09:51:35;9.13;;;1.90;;
1220;SDS011;600;48.044;7.878;2022-11-23T09:54:03;3.23;;;1.10;;
1220;SDS011;600;48.044;7.878;2022-11-23T09:56:38;3.93;;;1.10;;
1220;SDS011;600;48.044;7.878;2022-11-23T09:59:11;3.80;;;1.60;;
1220;SDS011;600;48.044;7.878;2022-11-23T10:01:55;7.80;;;2.03;;
1220;SDS011;600;48.044;7.878;2022-11-23T10:04:23;3.77;;;1.70;;
1220;SDS011;600;48.044;7.878;2022-11-23T10:06:51;3.83;;;1.93;;
1220;SDS011;600;48.044;7.878;2022-11-23T10:09:24;3.93;;;2.10;;
1220;SDS011;600;48.044;7.878;2022-11-23T10:12:07;2.03;;;1.50;;
1220;SDS011;600;48.044;7.878;2022-11-23T10:14:51;2.93;;;1.70;;
1220;SDS011;600;48.044;7.878;2022-11-23T10:17:28;2.70;;;2.30;;
1220;SDS011;600;48.044;7.878;2022-11-23T10:20:18;2.07;;;1.83;;
1220;SDS011;600;48.044;7.878;2022-11-23T10:22:57;2.87;;;1.80;;
1220;SDS011;600;48.044;7.878;2022-11-23T10:25:26;4.23;;;1.77;;
1220;SDS011;600;48.044;7.878;2022-11-23T10:27:59;2.13;;;1.93;;
1220;SDS011;600;48.044;7.878;2022-11-23T10:30:32;4.03;;;2.30;;
1220;SDS011;600;48.044;7.878;2022-11-23T10:32:59;3.57;;;1.97;;
1220;SDS011;600;48.044;7.878;2022-11-23T10:35:31;1.90;;;1.70;;
1220;SDS011;600;48.044;7.878;2022-11-23T10:38:08;3.70;;;1.87;;
1220;SDS011;600;48.044;7.878;2022-11-23T10:40:36;5.27;;;2.00;;
1220;SDS011;600;48.044;7.878;2022-11-23T10:43:10;2.83;;;1.83;;
1220;SDS011;600;48.044;7.878;2022-11-23T10:45:41;5.30;;;2.30;;
1220;SDS011;600;48.044;7.878;2022-11-23T10:48:08;3.20;;;1.70;;
1220;SDS011;600;48.044;7.878;2022-11-23T10:50:35;7.00;;;2.03;;
1220;SDS011;600;48.044;7.878;2022-11-23T10:53:16;1.83;;;1.60;;
1220;SDS011;600;48.044;7.878;2022-11-23T10:55:48;1.80;;;1.67;;
1220;SDS011;600;48.044;7.878;2022-11-23T10:58:26;2.93;;;1.57;;
1220;SDS011;600;48.044;7.878;2022-11-23T11:00:58;5.17;;;1.93;;
1220;SDS011;600;48.044;7.878;2022-11-23T11:03:28;2.33;;;1.47;;
1220;SDS011;600;48.044;7.878;2022-11-23T11:05:56;2.60;;;1.87;;
1220;SDS011;600;48.044;7.878;2022-11-23T11:08:24;3.30;;;1.80;;
1220;SDS011;600;48.044;7.878;2022-11-23T11:10:58;3.83;;;1.80;;
1220;SDS011;600;48.044;7.878;2022-11-23T11:13:29;6.00;;;2.07;;
1220;SDS011;600;48.044;7.878;2022-11-23T11:15:58;3.33;;;1.73;;
1220;SDS011;600;48.044;7.878;2022-11-23T11:18:28;2.50;;;1.47;;
1220;SDS011;600;48.044;7.878;2022-11-23T11:20:57;2.60;;;1.87;;
1220;SDS011;600;48.044;7.878;2022-11-23T11:23:27;2.00;;;1.80;;
1220;SDS011;600;48.044;7.878;2022-11-23T11:26:02;2.30;;;1.83;;
1220;SDS011;600;48.044;7.878;2022-11-23T11:28:37;3.20;;;2.40;;
1220;SDS011;600;48.044;7.878;2022-11-23T11:31:12;4.70;;;2.47;;
1220;SDS011;600;48.044;7.878;2022-11-23T11:33:56;1.83;;;1.63;;
1220;SDS011;600;48.044;7.878;2022-11-23T11:36:33;4.97;;;2.27;;
1220;SDS011;600;48.044;7.878;2022-11-23T11:39:09;2.70;;;2.10;;
1220;SDS011;600;48.044;7.878;2022-11-23T11:41:39;3.33;;;1.40;;
1220;SDS011;600;48.044;7.878;2022-11-23T11:44:12;2.80;;;1.60;;
1220;SDS011;600;48.044;7.878;2022-11-23T11:46:45;2.00;;;1.30;;
1220;SDS011;600;48.044;7.878;2022-11-23T11:49:15;1.60;;;1.50;;
1220;SDS011;600;48.044;7.878;2022-11-23T11:51:47;1.60;;;1.20;;
1220;SDS011;600;48.044;7.878;2022-11-23T11:54:20;1.23;;;1.10;;
1220;SDS011;600;48.044;7.878;2022-11-23T11:56:51;0.90;;;0.87;;
1220;SDS011;600;48.044;7.878;2022-11-23T11:59:23;2.13;;;1.03;;
1220;SDS011;600;48.044;7.878;2022-11-23T12:01:55;1.17;;;1.03;;
1220;SDS011;600;48.044;7.878;2022-11-23T12:04:27;1.33;;;1.03;;
1220;SDS011;600;48.044;7.878;2022-11-23T12:07:03;2.73;;;1.33;;
1220;SDS011;600;48.044;7.878;2022-11-23T12:09:36;1.20;;;0.90;;
1220;SDS011;600;48.044;7.878;2022-11-23T12:12:10;1.33;;;1.00;;
1220;SDS011;600;48.044;7.878;2022-11-23T12:14:42;1.47;;;1.03;;
1220;SDS011;600;48.044;7.878;2022-11-23T12:17:15;0.93;;;0.90;;
1220;SDS011;600;48.044;7.878;2022-11-23T12:19:57;1.20;;;0.70;;
1220;SDS011;600;48.044;7.878;2022-11-23T12:22:35;1.63;;;1.13;;
1220;SDS011;600;48.044;7.878;2022-11-23T12:25:15;2.80;;;1.00;;
1220;SDS011;600;48.044;7.878;2022-11-23T12:27:54;1.60;;;0.97;;
1220;SDS011;600;48.044;7.878;2022-11-23T12:30:33;0.73;;;0.73;;
1220;SDS011;600;48.044;7.878;2022-11-23T12:33:14;1.00;;;0.90;;
1220;SDS011;600;48.044;7.878;2022-11-23T12:35:57;0.77;;;0.77;;
1220;SDS011;600;48.044;7.878;2022-11-23T12:38:34;1.33;;;1.00;;
1220;SDS011;600;48.044;7.878;2022-11-23T12:41:08;2.10;;;1.13;;
1220;SDS011;600;48.044;7.878;2022-11-23T12:43:50;1.10;;;0.80;;
1220;SDS011;600;48.044;7.878;2022-11-23T12:46:36;2.43;;;0.97;;
1220;SDS011;600;48.044;7.878;2022-11-23T12:49:14;1.00;;;0.87;;
1220;SDS011;600;48.044;7.878;2022-11-23T12:51:51;1.23;;;0.80;;
1220;SDS011;600;48.044;7.878;2022-11-23T12:54:30;1.80;;;1.00;;
1220;SDS011;600;48.044;7.878;2022-11-23T12:57:17;1.60;;;1.00;;
1220;SDS011;600;48.044;7.878;2022-11-23T12:59:48;1.80;;;1.13;;
1220;SDS011;600;48.044;7.878;2022-11-23T13:02:28;0.80;;;0.80;;
1220;SDS011;600;48.044;7.878;2022-11-23T13:05:39;0.80;;;0.80;;
1220;SDS011;600;48.044;7.878;2022-11-23T13:08:47;0.67;;;0.67;;
1220;SDS011;600;48.044;7.878;2022-11-23T13:11:35;1.13;;;0.90;;
1220;SDS011;600;48.044;7.878;2022-11-23T13:14:14;1.53;;;0.73;;
1220;SDS011;600;48.044;7.878;2022-11-23T13:17:05;1.00;;;0.90;;
1220;SDS011;600;48.044;7.878;2022-11-23T13:19:55;1.50;;;1.20;;
1220;SDS011;600;48.044;7.878;2022-11-23T13:22:30;3.33;;;1.10;;
1220;SDS011;600;48.044;7.878;2022-11-23T13:25:13;2.60;;;1.20;;
1220;SDS011;600;48.044;7.878;2022-11-23T13:27:59;0.80;;;0.67;;
1220;SDS011;600;48.044;7.878;2022-11-23T13:30:31;1.20;;;1.10;;
1220;SDS011;600;48.044;7.878;2022-11-23T13:33:00;0.80;;;0.80;;
1220;SDS011;600;48.044;7.878;2022-11-23T13:38:25;1.30;;;1.20;;
1220;SDS011;600;48.044;7.878;2022-11-23T13:44:21;1.40;;;1.30;;
1220;SDS011;600;48.044;7.878;2022-11-23T13:46:57;1.20;;;1.10;;
1220;SDS011;600;48.044;7.878;2022-11-23T13:49:34;0.80;;;0.60;;
1220;SDS011;600;48.044;7.878;2022-11-23T13:52:17;0.77;;;0.70;;
1220;SDS011;600;48.044;7.878;2022-11-23T13:54:54;0.70;;;0.70;;
1220;SDS011;600;48.044;7.878;2022-11-23T13:57:25;0.93;;;0.80;;
1220;SDS011;600;48.044;7.878;2022-11-23T13:59:52;0.90;;;0.80;;
1220;SDS011;600;48.044;7.878;2022-11-23T14:02:24;0.70;;;0.70;;
1220;SDS011;600;48.044;7.878;2022-11-23T14:04:52;1.13;;;0.97;;
1220;SDS011;600;48.044;7.878;2022-11-23T14:07:55;0.80;;;0.80;;
1220;SDS011;600;48.044;7.878;2022-11-23T14:10:28;2.17;;;1.07;;
1220;SDS011;600;48.044;7.878;2022-11-23T14:12:59;1.10;;;1.00;;
1220;SDS011;600;48.044;7.878;2022-11-23T14:15:29;0.77;;;0.63;;
1220;SDS011;600;48.044;7.878;2022-11-23T14:18:15;0.77;;;0.77;;
1220;SDS011;600;48.044;7.878;2022-11-23T14:21:06;0.90;;;0.90;;
1220;SDS011;600;48.044;7.878;2022-11-23T14:24:01;1.17;;;1.07;;
1220;SDS011;600;48.044;7.878;2022-11-23T14:26:58;2.60;;;0.90;;
1220;SDS011;600;48.044;7.878;2022-11-23T14:32:30;1.90;;;1.10;;
1220;SDS011;600;48.044;7.878;2022-11-23T14:35:11;0.60;;;0.60;;
1220;SDS011;600;48.044;7.878;2022-11-23T14:37:50;0.97;;;0.97;;
1220;SDS011;600;48.044;7.878;2022-11-23T14:40:42;1.50;;;0.83;;
1220;SDS011;600;48.044;7.878;2022-11-23T14:43:18;1.10;;;1.00;;
1220;SDS011;600;48.044;7.878;2022-11-23T14:45:46;1.47;;;1.37;;
1220;SDS011;600;48.044;7.878;2022-11-23T14:48:19;1.10;;;1.00;;
1220;SDS011;600;48.044;7.878;2022-11-23T14:50:52;1.50;;;0.93;;
1220;SDS011;600;48.044;7.878;2022-11-23T14:53:22;1.27;;;1.07;;
1220;SDS011;600;48.044;7.878;2022-11-23T14:55:53;3.93;;;1.23;;
1220;SDS011;600;48.044;7.878;2022-11-23T14:58:20;1.47;;;1.37;;
1220;SDS011;600;48.044;7.878;2022-11-23T15:00:49;2.30;;;1.23;;
1220;SDS011;600;48.044;7.878;2022-11-23T15:03:19;1.57;;;1.10;;
1220;SDS011;600;48.044;7.878;2022-11-23T15:05:51;1.70;;;1.60;;
1220;SDS011;600;48.044;7.878;2022-11-23T15:08:22;2.00;;;1.80;;
1220;SDS011;600;48.044;7.878;2022-11-23T15:10:55;1.30;;;1.20;;
1220;SDS011;600;48.044;7.878;2022-11-23T15:13:29;2.00;;;1.30;;
1220;SDS011;600;48.044;7.878;2022-11-23T15:15:58;2.90;;;2.07;;
1220;SDS011;600;48.044;7.878;2022-11-23T15:18:29;1.60;;;1.50;;
1220;SDS011;600;48.044;7.878;2022-11-23T15:20:59;1.50;;;1.40;;
1220;SDS011;600;48.044;7.878;2022-11-23T15:23:28;2.00;;;1.30;;
1220;SDS011;600;48.044;7.878;2022-11-23T15:26:01;1.83;;;1.73;;
1220;SDS011;600;48.044;7.878;2022-11-23T15:28:30;1.37;;;1.13;;
1220;SDS011;600;48.044;7.878;2022-11-23T15:31:00;1.70;;;1.50;;
1220;SDS011;600;48.044;7.878;2022-11-23T15:33:44;2.00;;;1.67;;
1220;SDS011;600;48.044;7.878;2022-11-23T15:36:12;2.87;;;1.20;;
1220;SDS011;600;48.044;7.878;2022-11-23T15:38:40;2.30;;;1.60;;
1220;SDS011;600;48.044;7.878;2022-11-23T15:41:08;1.80;;;1.50;;
1220;SDS011;600;48.044;7.878;2022-11-23T15:43:35;2.03;;;1.70;;
1220;SDS011;600;48.044;7.878;2022-11-23T15:46:03;1.53;;;1.47;;
1220;SDS011;600;48.044;7.878;2022-11-23T15:48:36;1.60;;;1.50;;
1220;SDS011;600;48.044;7.878;2022-11-23T15:51:03;1.43;;;1.00;;
1220;SDS011;600;48.044;7.878;2022-11-23T15:53:34;2.07;;;1.80;;
1220;SDS011;600;48.044;7.878;2022-11-23T15:56:16;4.70;;;1.40;;
1220;SDS011;600;48.044;7.878;2022-11-23T15:58:47;2.30;;;2.10;;
1220;SDS011;600;48.044;7.878;2022-11-23T16:01:16;3.23;;;2.03;;
1220;SDS011;600;48.044;7.878;2022-11-23T16:03:47;2.13;;;1.93;;
1220;SDS011;600;48.044;7.878;2022-11-23T16:09:02;2.03;;;1.83;;
1220;SDS011;600;48.044;7.878;2022-11-23T16:11:51;2.50;;;2.40;;
1220;SDS011;600;48.044;7.878;2022-11-23T16:14:18;4.13;;;3.40;;
1220;SDS011;600;48.044;7.878;2022-11-23T16:16:46;4.87;;;2.10;;
1220;SDS011;600;48.044;7.878;2022-11-23T16:19:25;2.97;;;2.17;;
1220;SDS011;600;48.044;7.878;2022-11-23T16:21:54;3.23;;;2.17;;
1220;SDS011;600;48.044;7.878;2022-11-23T16:24:24;4.07;;;3.13;;
1220;SDS011;600;48.044;7.878;2022-11-23T16:26:53;3.27;;;2.97;;
1220;SDS011;600;48.044;7.878;2022-11-23T16:29:21;1.90;;;1.70;;
1220;SDS011;600;48.044;7.878;2022-11-23T16:31:53;5.83;;;1.70;;
1220;SDS011;600;48.044;7.878;2022-11-23T16:34:22;2.50;;;2.00;;
1220;SDS011;600;48.044;7.878;2022-11-23T16:36:51;2.30;;;1.93;;
1220;SDS011;600;48.044;7.878;2022-11-23T16:42:41;2.70;;;1.97;;
1220;SDS011;600;48.044;7.878;2022-11-23T16:45:09;3.17;;;2.87;;
1220;SDS011;600;48.044;7.878;2022-11-23T16:47:35;6.07;;;4.10;;
1220;SDS011;600;48.044;7.878;2022-11-23T16:50:16;4.40;;;3.27;;
1220;SDS011;600;48.044;7.878;2022-11-23T16:52:43;4.10;;;3.47;;
1220;SDS011;600;48.044;7.878;2022-11-23T16:55:09;4.20;;;2.77;;
1220;SDS011;600;48.044;7.878;2022-11-23T16:57:36;3.03;;;2.03;;
1220;SDS011;600;48.044;7.878;2022-11-23T17:00:06;3.37;;;2.63;;
1220;SDS011;600;48.044;7.878;2022-11-23T17:02:39;3.23;;;2.50;;
1220;SDS011;600;48.044;7.878;2022-11-23T17:05:08;4.13;;;2.67;;
1220;SDS011;600;48.044;7.878;2022-11-23T17:07:38;5.00;;;3.03;;
1220;SDS011;600;48.044;7.878;2022-11-23T17:10:05;5.07;;;3.30;;
1220;SDS011;600;48.044;7.878;2022-11-23T17:12:32;3.07;;;2.83;;
1220;SDS011;600;48.044;7.878;2022-11-23T17:15:00;2.90;;;2.60;;
1220;SDS011;600;48.044;7.878;2022-11-23T17:17:29;3.40;;;2.83;;
1220;SDS011;600;48.044;7.878;2022-11-23T17:19:56;7.00;;;6.30;;
1220;SDS011;600;48.044;7.878;2022-11-23T17:22:23;5.57;;;4.87;;
1220;SDS011;600;48.044;7.878;2022-11-23T17:24:50;5.10;;;4.53;;
1220;SDS011;600;48.044;7.878;2022-11-23T17:27:19;4.50;;;4.10;;
1220;SDS011;600;48.044;7.878;2022-11-23T17:29:54;3.57;;;2.90;;
1220;SDS011;600;48.044;7.878;2022-11-23T17:32:23;3.43;;;2.97;;
1220;SDS011;600;48.044;7.878;2022-11-23T17:34:51;2.93;;;2.70;;
1220;SDS011;600;48.044;7.878;2022-11-23T17:37:20;1.87;;;1.77;;
1220;SDS011;600;48.044;7.878;2022-11-23T17:39:48;1.83;;;1.73;;
1220;SDS011;600;48.044;7.878;2022-11-23T17:42:15;1.90;;;1.70;;
1220;SDS011;600;48.044;7.878;2022-11-23T17:44:42;1.63;;;1.53;;
1220;SDS011;600;48.044;7.878;2022-11-23T17:47:14;2.03;;;1.80;;
1220;SDS011;600;48.044;7.878;2022-11-23T17:49:46;1.60;;;1.50;;
1220;SDS011;600;48.044;7.878;2022-11-23T17:52:14;1.60;;;1.50;;
1220;SDS011;600;48.044;7.878;2022-11-23T17:54:41;2.67;;;1.67;;
1220;SDS011;600;48.044;7.878;2022-11-23T17:57:08;1.87;;;1.53;;
1220;SDS011;600;48.044;7.878;2022-11-23T17:59:39;4.10;;;1.70;;
1220;SDS011;600;48.044;7.878;2022-11-23T18:02:06;1.73;;;1.63;;
1220;SDS011;600;48.044;7.878;2022-11-23T18:04:33;1.60;;;1.50;;
1220;SDS011;600;48.044;7.878;2022-11-23T18:07:00;1.53;;;1.40;;
1220;SDS011;600;48.044;7.878;2022-11-23T18:09:28;2.27;;;1.90;;
1220;SDS011;600;48.044;7.878;2022-11-23T18:11:55;1.50;;;1.37;;
1220;SDS011;600;48.044;7.878;2022-11-23T18:14:21;1.80;;;1.70;;
1220;SDS011;600;48.044;7.878;2022-11-23T18:16:52;2.10;;;1.73;;
1220;SDS011;600;48.044;7.878;2022-11-23T18:19:19;2.37;;;2.17;;
1220;SDS011;600;48.044;7.878;2022-11-23T18:21:46;2.10;;;1.90;;
1220;SDS011;600;48.044;7.878;2022-11-23T18:24:13;1.93;;;1.83;;
1220;SDS011;600;48.044;7.878;2022-11-23T18:26:41;4.60;;;1.93;;
1220;SDS011;600;48.044;7.878;2022-11-23T18:29:08;2.10;;;1.90;;
1220;SDS011;600;48.044;7.878;2022-11-23T18:31:35;2.37;;;2.00;;
1220;SDS011;600;48.044;7.878;2022-11-23T18:34:02;3.57;;;2.10;;
1220;SDS011;600;48.044;7.878;2022-11-23T18:36:29;3.40;;;2.30;;
1220;SDS011;600;48.044;7.878;2022-11-23T18:38:56;2.40;;;2.20;;
1220;SDS011;600;48.044;7.878;2022-11-23T18:41:25;2.10;;;1.90;;
1220;SDS011;600;48.044;7.878;2022-11-23T18:43:53;3.63;;;2.43;;
1220;SDS011;600;48.044;7.878;2022-11-23T18:46:20;3.23;;;2.90;;
1220;SDS011;600;48.044;7.878;2022-11-23T18:48:47;4.17;;;3.40;;
1220;SDS011;600;48.044;7.878;2022-11-23T18:51:15;2.60;;;2.40;;
1220;SDS011;600;48.044;7.878;2022-11-23T18:53:43;3.30;;;2.90;;
1220;SDS011;600;48.044;7.878;2022-11-23T18:56:11;6.67;;;3.33;;
1220;SDS011;600;48.044;7.878;2022-11-23T18:58:38;3.30;;;2.33;;
1220;SDS011;600;48.044;7.878;2022-11-23T19:01:08;2.53;;;2.33;;
1220;SDS011;600;48.044;7.878;2022-11-23T19:03:37;4.90;;;2.37;;
1220;SDS011;600;48.044;7.878;2022-11-23T19:06:04;2.70;;;2.50;;
1220;SDS011;600;48.044;7.878;2022-11-23T19:08:36;3.03;;;2.13;;
1220;SDS011;600;48.044;7.878;2022-11-23T19:11:04;3.90;;;2.63;;
1220;SDS011;600;48.044;7.878;2022-11-23T19:13:33;4.20;;;2.57;;
1220;SDS011;600;48.044;7.878;2022-11-23T19:16:05;3.77;;;2.80;;
1220;SDS011;600;48.044;7.878;2022-11-23T19:18:34;3.10;;;2.70;;
1220;SDS011;600;48.044;7.878;2022-11-23T19:21:09;5.90;;;2.73;;
1220;SDS011;600;48.044;7.878;2022-11-23T19:23:36;5.73;;;2.17;;
1220;SDS011;600;48.044;7.878;2022-11-23T19:26:03;2.87;;;2.50;;
1220;SDS011;600;48.044;7.878;2022-11-23T19:28:30;2.77;;;2.20;;
1220;SDS011;600;48.044;7.878;2022-11-23T19:30:57;4.70;;;2.33;;
1220;SDS011;600;48.044;7.878;2022-11-23T19:33:25;4.00;;;2.57;;
1220;SDS011;600;48.044;7.878;2022-11-23T19:35:54;4.90;;;2.37;;
1220;SDS011;600;48.044;7.878;2022-11-23T19:38:21;2.47;;;2.10;;
1220;SDS011;600;48.044;7.878;2022-11-23T19:40:52;4.27;;;2.50;;
1220;SDS011;600;48.044;7.878;2022-11-23T19:43:19;5.27;;;3.03;;
1220;SDS011;600;48.044;7.878;2022-11-23T19:45:51;3.80;;;2.73;;
1220;SDS011;600;48.044;7.878;2022-11-23T19:48:18;2.90;;;2.50;;
1220;SDS011;600;48.044;7.878;2022-11-23T19:50:54;3.77;;;2.63;;
1220;SDS011;600;48.044;7.878;2022-11-23T19:53:21;5.10;;;3.00;;
1220;SDS011;600;48.044;7.878;2022-11-23T19:55:48;8.27;;;3.40;;
1220;SDS011;600;48.044;7.878;2022-11-23T19:58:15;4.00;;;2.60;;
1220;SDS011;600;48.044;7.878;2022-11-23T20:00:42;4.83;;;2.80;;
1220;SDS011;600;48.044;7.878;2022-11-23T20:03:10;3.20;;;2.90;;
1220;SDS011;600;48.044;7.878;2022-11-23T20:05:37;4.40;;;3.27;;
1220;SDS011;600;48.044;7.878;2022-11-23T20:08:05;5.00;;;2.90;;
1220;SDS011;600;48.044;7.878;2022-11-23T20:10:33;4.03;;;2.60;;
1220;SDS011;600;48.044;7.878;2022-11-23T20:12:59;7.10;;;2.83;;
1220;SDS011;600;48.044;7.878;2022-11-23T20:15:26;4.30;;;2.07;;
1220;SDS011;600;48.044;7.878;2022-11-23T20:17:53;4.20;;;2.30;;
1220;SDS011;600;48.044;7.878;2022-11-23T20:20:20;6.40;;;2.80;;
1220;SDS011;600;48.044;7.878;2022-11-23T20:22:48;7.10;;;2.30;;
1220;SDS011;600;48.044;7.878;2022-11-23T20:25:16;3.00;;;2.53;;
1220;SDS011;600;48.044;7.878;2022-11-23T20:27:43;4.97;;;2.40;;
1220;SDS011;600;48.044;7.878;2022-11-23T20:30:10;5.13;;;2.63;;
1220;SDS011;600;48.044;7.878;2022-11-23T20:32:37;3.40;;;2.23;;
1220;SDS011;600;48.044;7.878;2022-11-23T20:35:04;6.33;;;3.00;;
1220;SDS011;600;48.044;7.878;2022-11-23T20:37:32;4.33;;;2.80;;
1220;SDS011;600;48.044;7.878;2022-11-23T20:39:58;4.40;;;2.53;;
1220;SDS011;600;48.044;7.878;2022-11-23T22:00:43;3.40;;;1.97;;
1220;SDS011;600;48.044;7.878;2022-11-23T22:03:10;3.17;;;1.80;;
1220;SDS011;600;48.044;7.878;2022-11-23T22:05:37;1.77;;;1.60;;
1220;SDS011;600;48.044;7.878;2022-11-23T22:08:04;3.30;;;1.80;;
1220;SDS011;600;48.044;7.878;2022-11-23T22:10:31;3.50;;;1.50;;
1220;SDS011;600;48.044;7.878;2022-11-23T22:12:57;1.97;;;1.50;;
1220;SDS011;600;48.044;7.878;2022-11-23T22:15:24;2.00;;;1.33;;
1220;SDS011;600;48.044;7.878;2022-11-23T22:17:53;1.80;;;1.60;;
1220;SDS011;600;48.044;7.878;2022-11-23T22:20:19;0.87;;;0.87;;
1220;SDS011;600;48.044;7.878;2022-11-23T22:22:46;4.83;;;1.23;;
1220;SDS011;600;48.044;7.878;2022-11-23T22:25:13;2.70;;;1.10;;
1220;SDS011;600;48.044;7.878;2022-11-23T22:27:39;2.10;;;1.17;;
1220;SDS011;600;48.044;7.878;2022-11-23T22:30:07;8.43;;;1.50;;
1220;SDS011;600;48.044;7.878;2022-11-23T22:32:34;2.73;;;1.20;;
1220;SDS011;600;48.044;7.878;2022-11-23T22:35:02;3.50;;;1.20;;
1220;SDS011;600;48.044;7.878;2022-11-23T22:37:30;1.70;;;1.00;;
1220;SDS011;600;48.044;7.878;2022-11-23T22:39:56;2.20;;;1.50;;
1220;SDS011;600;48.044;7.878;2022-11-23T22:42:23;6.90;;;2.27;;
1220;SDS011;600;48.044;7.878;2022-11-23T22:44:50;2.87;;;1.60;;
1220;SDS011;600;48.044;7.878;2022-11-23T22:47:16;2.20;;;1.70;;
1220;SDS011;600;48.044;7.878;2022-11-23T22:49:43;3.17;;;1.40;;
1220;SDS011;600;48.044;7.878;2022-11-23T22:52:12;3.73;;;2.60;;
